Time;durP1;ratioP1;P1;durP2;ratioP2;P2;SDS_P1;SDS_P2;PMS_P1;PMS_P2;Temp;Humidity;BMP_temperature;BMP_pressure;BME280_temperature;BME280_humidity;BME280_pressure;Samples;Min_cycle;Max_cycle;Signal;HPM_P1;HPM_P2
2023/05/10 00:01:12;;;;;;;;;;;;;;;12.02;100.00;100893.06;5025617;28;20508;-53
2023/05/10 00:03:38;;;;;;;;;;;;;;;12.01;100.00;100874.97;5028439;28;19921;-52
2023/05/10 00:06:03;;;;;;;;;;;;;;;11.99;100.00;100876.66;5024419;28;19936;-51
2023/05/10 00:08:28;;;;;;;;;;;;;;;11.98;100.00;100885.22;5022327;28;20272;-52
2023/05/10 00:10:53;;;;;;;;;;;;;;;11.96;100.00;100877.47;5029778;28;19924;-52
2023/05/10 00:13:19;;;;;;;;;;;;;;;11.96;100.00;100877.47;5017917;28;19936;-51
2023/05/10 00:15:44;;;;;;;;;;;;;;;11.95;100.00;100872.25;5023406;28;19921;-52
2023/05/10 00:18:09;;;;;;;;;;;;;;;11.94;100.00;100873.09;5027369;28;20032;-53
2023/05/10 00:20:35;;;;;;;;;;;;;;;11.94;100.00;100875.69;5028599;28;19917;-52
2023/05/10 00:23:00;;;;;;;;;;;;;;;11.91;100.00;100876.50;5030950;27;19921;-52
2023/05/10 00:25:25;;;;;;;;;;;;;;;11.91;100.00;100868.75;5027359;27;19948;-52
2023/05/10 00:27:50;;;;;;;;;;;;;;;11.90;100.00;100876.47;5027017;27;19925;-52
2023/05/10 00:30:16;;;;;;;;;;;;;;;11.89;100.00;100875.59;5026960;28;19921;-52
2023/05/10 00:32:41;;;;;;;;;;;;;;;11.88;100.00;100876.41;5036097;27;19929;-52
2023/05/10 00:35:07;;;;;;;;;;;;;;;11.86;100.00;100877.22;5028864;27;20363;-50
2023/05/10 00:37:32;;;;;;;;;;;;;;;11.85;100.00;100880.63;5024369;28;20417;-52
2023/05/10 00:39:57;;;;;;;;;;;;;;;11.81;100.00;100875.41;5029504;27;19979;-52
2023/05/10 00:42:23;;;;;;;;;;;;;;;11.78;100.00;100877.88;5035769;27;19985;-53
2023/05/10 00:44:48;;;;;;;;;;;;;;;11.76;100.00;100876.97;5033163;27;19921;-53
2023/05/10 00:47:13;;;;;;;;;;;;;;;11.71;100.00;100875.09;5019959;27;19926;-50
2023/05/10 00:49:39;;;;;;;;;;;;;;;11.68;100.00;100875.06;5030471;27;19932;-52
2023/05/10 00:52:04;;;;;;;;;;;;;;;11.67;100.00;100870.72;5029215;27;19921;-53
2023/05/10 00:54:29;;;;;;;;;;;;;;;11.65;100.00;100865.56;5027887;27;19949;-52
2023/05/10 00:56:56;;;;;;;;;;;;;;;11.64;100.00;100873.22;5036105;27;20331;-53
2023/05/10 00:59:22;;;;;;;;;;;;;;;11.61;100.00;100868.88;5026831;27;19928;-52
2023/05/10 01:01:47;;;;;;;;;;;;;;;11.59;100.00;100870.56;5033296;27;19927;-52
2023/05/10 01:04:13;;;;;;;;;;;;;;;11.57;100.00;100871.34;5032606;27;19933;-52
2023/05/10 01:06:39;;;;;;;;;;;;;;;11.54;100.00;100869.56;5031638;27;19924;-52
2023/05/10 01:09:06;;;;;;;;;;;;;;;11.49;100.00;100872.03;5027775;27;20288;-52
2023/05/10 01:11:31;;;;;;;;;;;;;;;11.47;100.00;100868.56;5033823;27;19924;-52
2023/05/10 01:13:57;;;;;;;;;;;;;;;11.43;100.00;100869.31;5032630;27;20383;-53
2023/05/10 01:16:23;;;;;;;;;;;;;;;11.40;100.00;100869.22;5021652;28;20629;-53
2023/05/10 01:18:48;;;;;;;;;;;;;;;11.38;100.00;100870.03;5031966;27;19921;-52
2023/05/10 01:21:13;;;;;;;;;;;;;;;11.36;100.00;100867.41;5040552;27;20090;-52
2023/05/10 01:23:53;;;;;;;;;;;;;;;11.33;100.00;100872.47;5037270;27;19925;-52
2023/05/10 01:26:24;;;;;;;;;;;;;;;11.33;100.00;100869.03;5043310;27;19921;-51
2023/05/10 01:28:55;;;;;;;;;;;;;;;11.35;100.00;100867.38;5033765;27;19941;-52
2023/05/10 01:31:47;;;;;;;;;;;;;;;11.38;100.00;100867.44;5035397;27;19969;-51
2023/05/10 01:34:16;;;;;;;;;;;;;;;11.39;100.00;100864.03;5036510;27;20024;-52
2023/05/10 01:37:04;;;;;;;;;;;;;;;11.40;100.00;100868.34;5031884;27;20535;-52
2023/05/10 01:39:38;;;;;;;;;;;;;;;11.42;100.00;100871.84;5107144;27;19928;-52
2023/05/10 01:42:07;;;;;;;;;;;;;;;11.42;100.00;100870.16;5041310;27;19985;-53
2023/05/10 01:44:39;;;;;;;;;;;;;;;11.47;100.00;100875.41;5031411;27;20011;-52
2023/05/10 01:47:10;;;;;;;;;;;;;;;11.50;100.00;100876.34;5037688;27;20599;-53
2023/05/10 01:49:46;;;;;;;;;;;;;;;11.53;100.00;100881.59;5046973;27;19921;-51
2023/05/10 01:52:19;;;;;;;;;;;;;;;11.57;100.00;100887.66;5025180;27;19929;-53
2023/05/10 01:54:49;;;;;;;;;;;;;;;11.59;100.00;100879.97;5020506;28;20291;-52
2023/05/10 01:57:16;;;;;;;;;;;;;;;11.59;100.00;100879.97;5026686;27;19969;-52
2023/05/10 01:59:43;;;;;;;;;;;;;;;11.61;100.00;100888.63;5031552;27;19935;-52
2023/05/10 02:02:12;;;;;;;;;;;;;;;11.60;100.00;100882.59;5023568;28;20452;-52
2023/05/10 02:04:38;;;;;;;;;;;;;;;11.60;100.00;100880.03;5025264;27;19925;-52
2023/05/10 02:07:05;;;;;;;;;;;;;;;11.62;100.00;100880.91;5023997;27;19925;-52
2023/05/10 02:09:31;;;;;;;;;;;;;;;11.64;100.00;100886.97;5030083;27;19974;-51
2023/05/10 02:11:58;;;;;;;;;;;;;;;11.66;100.00;100884.44;5031036;27;19925;-52
2023/05/10 02:14:26;;;;;;;;;;;;;;;11.69;100.00;100887.09;5024136;27;19917;-52
2023/05/10 02:16:52;;;;;;;;;;;;;;;11.72;100.00;100893.19;5030651;27;20406;-52
2023/05/10 02:19:18;;;;;;;;;;;;;;;11.73;100.00;100894.94;5028594;27;19925;-52
2023/05/10 02:21:45;;;;;;;;;;;;;;;11.75;100.00;100900.97;5030368;27;19962;-52
2023/05/10 02:24:11;;;;;;;;;;;;;;;11.76;100.00;100892.41;5025354;27;19920;-52
2023/05/10 02:26:37;;;;;;;;;;;;;;;11.79;100.00;100907.09;5027824;27;19944;-53
2023/05/10 02:29:04;;;;;;;;;;;;;;;11.80;100.00;100896.81;5027027;27;19972;-52
2023/05/10 02:31:33;;;;;;;;;;;;;;;11.84;100.00;100894.34;5026431;27;19945;-52
2023/05/10 02:33:59;;;;;;;;;;;;;;;11.85;100.00;100896.09;5027763;28;20394;-51
2023/05/10 02:36:27;;;;;;;;;;;;;;;11.85;100.00;100894.38;5032420;28;19925;-51
2023/05/10 02:38:53;;;;;;;;;;;;;;;11.86;100.00;100892.69;5025578;28;20008;-51
2023/05/10 02:41:19;;;;;;;;;;;;;;;11.87;100.00;100891.84;5027278;27;20016;-53
2023/05/10 02:43:45;;;;;;;;;;;;;;;11.88;100.00;100897.00;5027997;28;19921;-49
2023/05/10 02:46:11;;;;;;;;;;;;;;;11.87;100.00;100890.13;5033303;27;19935;-52
2023/05/10 02:48:36;;;;;;;;;;;;;;;11.86;100.00;100892.69;5019917;28;19934;-49
2023/05/10 02:51:05;;;;;;;;;;;;;;;11.86;100.00;100897.84;5028438;27;19921;-50
2023/05/10 02:53:31;;;;;;;;;;;;;;;11.85;100.00;100893.50;5024981;27;20359;-51
2023/05/10 02:55:58;;;;;;;;;;;;;;;11.84;100.00;100891.78;5043012;27;19940;-51
2023/05/10 02:58:24;;;;;;;;;;;;;;;11.84;100.00;100900.38;5029962;27;19917;-50
2023/05/10 03:00:49;;;;;;;;;;;;;;;11.85;100.00;100896.97;5023951;27;20017;-49
2023/05/10 03:03:14;;;;;;;;;;;;;;;11.85;100.00;100896.09;5027267;28;19921;-49
2023/05/10 03:05:39;;;;;;;;;;;;;;;11.85;100.00;100894.38;5029801;27;20316;-51
2023/05/10 03:08:05;;;;;;;;;;;;;;;11.88;100.00;100903.88;5027686;28;20025;-49
2023/05/10 03:10:32;;;;;;;;;;;;;;;11.88;100.00;100902.16;5030518;27;19929;-51
2023/05/10 03:13:06;;;;;;;;;;;;;;;11.89;100.00;100900.47;5029000;28;19925;-50
2023/05/10 03:15:42;;;;;;;;;;;;;;;11.88;100.00;100891.00;5026963;28;19980;-51
2023/05/10 03:18:10;;;;;;;;;;;;;;;11.89;100.00;100900.47;5026884;27;20029;-51
2023/05/10 03:20:38;;;;;;;;;;;;;;;11.88;100.00;100899.59;5028176;28;19928;-52
2023/05/10 03:23:21;;;;;;;;;;;;;;;11.88;100.00;100898.72;5027118;28;20012;-52
2023/05/10 03:25:48;;;;;;;;;;;;;;;11.90;100.00;100902.22;5031952;28;19925;-49
2023/05/10 03:28:14;;;;;;;;;;;;;;;11.90;100.00;100904.81;5027834;28;19977;-52
2023/05/10 03:30:40;;;;;;;;;;;;;;;11.89;100.00;100903.03;5036690;28;19921;-50
2023/05/10 03:33:08;;;;;;;;;;;;;;;11.89;100.00;100910.78;5019188;27;19970;-51
2023/05/10 03:35:34;;;;;;;;;;;;;;;11.93;100.00;100912.59;5030125;28;19921;-51
2023/05/10 03:37:59;;;;;;;;;;;;;;;11.92;100.00;100905.69;5028250;28;20372;-48
2023/05/10 03:40:25;;;;;;;;;;;;;;;11.91;100.00;100910.00;5029889;28;20421;-49
2023/05/10 03:42:50;;;;;;;;;;;;;;;11.91;100.00;100915.13;5030422;28;19940;-48
2023/05/10 03:45:16;;;;;;;;;;;;;;;11.94;100.00;100922.94;5023722;28;19930;-49
2023/05/10 03:47:41;;;;;;;;;;;;;;;11.94;100.00;100919.47;5027419;28;19920;-47
2023/05/10 03:50:07;;;;;;;;;;;;;;;11.93;100.00;100916.03;5022880;28;19922;-48
2023/05/10 03:52:32;;;;;;;;;;;;;;;11.92;100.00;100922.03;5024124;28;20403;-51
2023/05/10 03:54:57;;;;;;;;;;;;;;;11.94;100.00;100922.94;5024852;28;19925;-51
2023/05/10 03:57:22;;;;;;;;;;;;;;;11.93;100.00;100920.31;5027663;27;19929;-51
2023/05/10 03:59:48;;;;;;;;;;;;;;;11.93;100.00;100928.06;5031396;27;20021;-50
2023/05/10 04:02:13;;;;;;;;;;;;;;;11.93;100.00;100923.75;5032626;27;19925;-48
2023/05/10 04:04:38;;;;;;;;;;;;;;;11.91;100.00;100919.44;5034514;27;19927;-51
2023/05/10 04:07:03;;;;;;;;;;;;;;;11.91;100.00;100934.88;5025530;27;19921;-52
2023/05/10 04:09:29;;;;;;;;;;;;;;;11.92;100.00;100928.91;5027017;27;19925;-52
2023/05/10 04:11:54;;;;;;;;;;;;;;;11.90;100.00;100938.31;5035876;27;19925;-49
2023/05/10 04:14:19;;;;;;;;;;;;;;;11.89;100.00;100933.97;5024912;27;19964;-49
2023/05/10 04:16:45;;;;;;;;;;;;;;;11.91;100.00;100945.19;5031546;27;19921;-49
2023/05/10 04:19:10;;;;;;;;;;;;;;;11.87;100.00;100944.22;5026612;27;19921;-48
2023/05/10 04:21:36;;;;;;;;;;;;;;;11.85;100.00;100937.31;5031143;27;20772;-50
2023/05/10 04:24:01;;;;;;;;;;;;;;;11.84;100.00;100935.59;5031443;27;20057;-49
2023/05/10 04:26:26;;;;;;;;;;;;;;;11.88;100.00;100945.97;5032989;27;19928;-51
2023/05/10 04:28:51;;;;;;;;;;;;;;;11.84;100.00;100940.72;5049812;27;20248;-49
2023/05/10 04:31:17;;;;;;;;;;;;;;;11.81;100.00;100944.97;5033072;27;19921;-49
2023/05/10 04:33:42;;;;;;;;;;;;;;;11.80;100.00;100943.19;5027594;27;19936;-51
2023/05/10 04:36:07;;;;;;;;;;;;;;;11.78;100.00;100944.00;5029089;27;20421;-50
2023/05/10 04:38:32;;;;;;;;;;;;;;;11.74;100.00;100953.34;5037496;28;20326;-48
2023/05/10 04:41:05;;;;;;;;;;;;;;;11.71;100.00;100947.22;5013390;27;20012;-48
2023/05/10 04:43:30;;;;;;;;;;;;;;;11.67;100.00;100950.59;5027155;27;19973;-48
2023/05/10 04:45:58;;;;;;;;;;;;;;;11.63;100.00;100949.63;5027829;28;20020;-48
2023/05/10 04:48:23;;;;;;;;;;;;;;;11.61;100.00;100946.16;5026601;27;19929;-50
2023/05/10 04:50:49;;;;;;;;;;;;;;;11.59;100.00;100955.56;5032490;27;19925;-51
2023/05/10 04:53:14;;;;;;;;;;;;;;;11.58;100.00;100950.34;5021056;28;19924;-51
2023/05/10 04:55:39;;;;;;;;;;;;;;;11.56;100.00;100950.31;5030474;27;20246;-48
2023/05/10 04:58:04;;;;;;;;;;;;;;;11.54;100.00;100959.72;5029404;27;19921;-48
2023/05/10 05:00:30;;;;;;;;;;;;;;;11.52;100.00;100966.50;5027211;28;19924;-48
2023/05/10 05:02:55;;;;;;;;;;;;;;;11.50;100.00;100960.44;5025163;28;19924;-47
2023/05/10 05:05:20;;;;;;;;;;;;;;;11.49;100.00;100971.59;5028338;27;20326;-48
2023/05/10 05:07:45;;;;;;;;;;;;;;;11.46;100.00;100963.75;5028943;27;19929;-48
2023/05/10 05:10:11;;;;;;;;;;;;;;;11.46;100.00;100964.63;5034820;27;20374;-49
2023/05/10 05:12:36;;;;;;;;;;;;;;;11.47;100.00;100971.56;5027278;28;19925;-49
2023/05/10 05:15:02;;;;;;;;;;;;;;;11.47;100.00;100968.97;5016500;27;19947;-49
2023/05/10 05:17:29;;;;;;;;;;;;;;;11.47;100.00;100970.69;5026021;28;19958;-47
2023/05/10 05:19:54;;;;;;;;;;;;;;;11.48;100.00;100972.44;5020508;28;19921;-50
2023/05/10 05:22:26;;;;;;;;;;;;;;;11.48;100.00;100973.28;5025331;28;19921;-47
2023/05/10 05:24:51;;;;;;;;;;;;;;;11.48;100.00;100975.00;5026585;28;20408;-49
2023/05/10 05:27:17;;;;;;;;;;;;;;;11.49;100.00;100974.16;5025812;28;19921;-47
2023/05/10 05:29:42;;;;;;;;;;;;;;;11.51;100.00;100980.22;5026358;28;20575;-47
2023/05/10 05:32:08;;;;;;;;;;;;;;;11.53;100.00;100976.00;5022766;28;19933;-48
2023/05/10 05:34:33;;;;;;;;;;;;;;;11.57;100.00;100970.06;5025681;28;20010;-48
2023/05/10 05:36:58;;;;;;;;;;;;;;;11.61;100.00;100977.06;5024276;28;19956;-50
2023/05/10 05:39:23;;;;;;;;;;;;;;;11.62;100.00;100976.22;5018745;28;20064;-47
2023/05/10 05:41:49;;;;;;;;;;;;;;;11.66;100.00;100978.06;5041824;28;19932;-48
2023/05/10 05:44:14;;;;;;;;;;;;;;;11.70;100.00;100976.41;5021856;28;20387;-50
2023/05/10 05:46:39;;;;;;;;;;;;;;;11.73;100.00;100972.22;5026045;28;19932;-47
2023/05/10 05:49:04;;;;;;;;;;;;;;;11.76;100.00;100979.13;5017013;28;20399;-48
2023/05/10 05:51:30;;;;;;;;;;;;;;;11.78;100.00;100982.63;5017789;28;19970;-48
2023/05/10 05:53:56;;;;;;;;;;;;;;;11.79;100.00;100984.38;5023560;28;19921;-48
2023/05/10 05:56:24;;;;;;;;;;;;;;;11.85;100.00;100983.69;5018687;28;19971;-48
2023/05/10 05:58:50;;;;;;;;;;;;;;;11.93;100.00;100990.75;5024324;28;19917;-47
2023/05/10 06:01:15;;;;;;;;;;;;;;;11.94;100.00;100982.19;5025845;28;19929;-48
2023/05/10 06:03:40;;;;;;;;;;;;;;;11.97;100.00;100986.56;5021796;28;19970;-48
2023/05/10 06:06:06;;;;;;;;;;;;;;;12.00;100.00;100995.22;5023865;28;19925;-48
2023/05/10 06:08:31;;;;;;;;;;;;;;;12.03;100.00;100992.75;5024866;28;19921;-47
2023/05/10 06:10:56;;;;;;;;;;;;;;;12.05;100.00;100995.34;5022328;28;19989;-46
2023/05/10 06:13:21;;;;;;;;;;;;;;;12.06;100.00;100997.94;5025215;28;19921;-47
2023/05/10 06:15:47;;;;;;;;;;;;;;;12.08;100.00;101004.03;5024391;28;20024;-46
2023/05/10 06:18:12;;;;;;;;;;;;;;;12.10;100.00;101009.22;5024287;28;19917;-50
2023/05/10 06:20:37;;;;;;;;;;;;;;;12.12;100.00;101006.69;5025565;28;19922;-48
2023/05/10 06:23:02;;;;;;;;;;;;;;;12.11;100.00;101007.50;5031006;27;19928;-48
2023/05/10 06:25:28;;;;;;;;;;;;;;;12.12;100.00;101012.69;5022387;28;19928;-48
2023/05/10 06:27:57;;;;;;;;;;;;;;;12.16;100.00;101009.38;5023790;28;19929;-50
2023/05/10 06:30:27;;;;;;;;;;;;;;;12.23;100.00;101013.84;5021644;28;19925;-46
2023/05/10 06:32:52;;;;;;;;;;;;;;;12.27;100.00;101013.06;5020687;28;19960;-48
2023/05/10 06:35:17;;;;;;;;;;;;;;;12.30;100.00;101013.13;5024778;28;19967;-47
2023/05/10 06:37:42;;;;;;;;;;;;;;;12.31;100.00;101014.88;5022328;28;20031;-47
2023/05/10 06:40:09;;;;;;;;;;;;;;;12.38;100.00;101020.16;5021856;28;19924;-51
2023/05/10 06:42:34;;;;;;;;;;;;;;;12.47;100.00;101022.97;5023901;28;20020;-46
2023/05/10 06:44:59;;;;;;;;;;;;;;;12.56;100.00;101021.50;5024156;28;20446;-47
2023/05/10 06:47:24;;;;;;;;;;;;;;;12.68;100.00;101025.16;5023711;28;19917;-47
2023/05/10 06:49:50;;;;;;;;;;;;;;;12.78;100.00;101027.97;5025012;28;20044;-47
2023/05/10 06:52:15;;;;;;;;;;;;;;;12.92;100.00;101029.97;5021530;28;20276;-48
2023/05/10 06:54:40;;;;;;;;;;;;;;;13.01;100.00;101033.63;5024796;28;19925;-49
2023/05/10 06:57:06;;;;;;;;;;;;;;;13.08;100.00;101042.38;5023446;27;19923;-48
2023/05/10 06:59:31;;;;;;;;;;;;;;;13.06;100.00;101033.72;5024099;28;19921;-49
2023/05/10 07:01:57;;;;;;;;;;;;;;;13.07;100.00;101038.91;5024160;28;19970;-48
2023/05/10 07:04:22;;;;;;;;;;;;;;;13.01;100.00;101040.50;5016500;28;20426;-49
2023/05/10 07:06:47;;;;;;;;;;;;;;;12.93;100.00;101039.47;5026684;28;19924;-51
2023/05/10 07:09:13;;;;;;;;;;;;;;;12.89;100.00;101047.16;5020661;28;19921;-51
2023/05/10 07:11:38;;;;;;;;;;;;;;;12.83;100.00;101044.44;5025998;28;20054;-51
2023/05/10 07:14:03;;;;;;;;;;;;;;;12.79;100.00;101050.34;5023471;28;19921;-50
2023/05/10 07:16:29;;;;;;;;;;;;;;;12.74;100.00;101054.56;5023065;28;19929;-49
2023/05/10 07:18:54;;;;;;;;;;;;;;;12.69;100.00;101063.91;5023608;28;19928;-49
2023/05/10 07:21:19;;;;;;;;;;;;;;;12.68;100.00;101057.00;5023722;28;20475;-49
2023/05/10 07:23:45;;;;;;;;;;;;;;;12.66;100.00;101060.38;5023518;28;19965;-48
2023/05/10 07:26:10;;;;;;;;;;;;;;;12.64;100.00;101065.50;5021375;28;19956;-47
2023/05/10 07:28:37;;;;;;;;;;;;;;;12.66;100.00;101074.13;5025802;28;20020;-47
2023/05/10 07:31:02;;;;;;;;;;;;;;;12.59;100.00;101070.56;5025458;27;19913;-48
2023/05/10 07:33:27;;;;;;;;;;;;;;;12.56;100.00;101079.94;5020960;28;19924;-47
2023/05/10 07:35:53;;;;;;;;;;;;;;;12.54;100.00;101079.03;5022571;28;19972;-47
2023/05/10 07:38:18;;;;;;;;;;;;;;;12.51;100.00;101074.69;5017091;28;19942;-47
2023/05/10 07:40:43;;;;;;;;;;;;;;;12.54;100.00;101076.44;5024096;28;20298;-48
2023/05/10 07:43:09;;;;;;;;;;;;;;;12.57;100.00;101079.09;5024132;28;19922;-48
2023/05/10 07:45:34;;;;;;;;;;;;;;;12.60;100.00;101077.44;5022579;28;19964;-47
2023/05/10 07:47:59;;;;;;;;;;;;;;;12.66;100.00;101083.59;5024620;28;19925;-48
2023/05/10 07:50:24;;;;;;;;;;;;;;;12.72;100.00;101078.56;5023636;28;19924;-47
2023/05/10 07:52:50;;;;;;;;;;;;;;;12.75;100.00;101083.81;5030795;28;20454;-48
2023/05/10 07:55:15;;;;;;;;;;;;;;;12.81;100.00;101082.25;5020745;28;20369;-52
2023/05/10 07:57:41;;;;;;;;;;;;;;;12.83;100.00;101085.72;5022954;28;19920;-47
2023/05/10 08:00:07;;;;;;;;;;;;;;;12.84;100.00;101089.16;5023342;28;19956;-48
2023/05/10 08:02:33;;;;;;;;;;;;;;;12.85;100.00;101096.06;5040500;28;19982;-48
2023/05/10 08:04:59;;;;;;;;;;;;;;;12.85;100.00;101106.41;5021770;28;19913;-48
2023/05/10 08:07:24;;;;;;;;;;;;;;;12.83;100.00;101103.78;5022325;28;19932;-47
2023/05/10 08:09:49;;;;;;;;;;;;;;;12.78;100.00;101104.50;5018451;28;20016;-46
2023/05/10 08:12:14;;;;;;;;;;;;;;;12.76;100.00;101106.19;5022011;28;19928;-46
2023/05/10 08:14:40;;;;;;;;;;;;;;;12.76;100.00;101109.66;5021537;28;19921;-46
2023/05/10 08:17:05;;;;;;;;;;;;;;;12.79;100.00;101112.28;5021752;28;20373;-47
2023/05/10 08:19:31;;;;;;;;;;;;;;;12.88;100.00;101114.22;5012815;28;20367;-48
2023/05/10 08:21:56;;;;;;;;;;;;;;;12.97;100.00;101121.28;5020938;28;19917;-47
2023/05/10 08:24:22;;;;;;;;;;;;;;;13.06;100.00;101116.34;5022490;28;19946;-47
2023/05/10 08:26:47;;;;;;;;;;;;;;;13.14;100.00;101122.53;5022996;28;19998;-51
2023/05/10 08:29:13;;;;;;;;;;;;;;;13.18;100.00;101118.31;5023407;28;19921;-51
2023/05/10 08:31:38;;;;;;;;;;;;;;;13.27;100.00;101121.13;5022203;28;20020;-47
2023/05/10 08:34:03;;;;;;;;;;;;;;;13.39;100.00;101124.81;5022197;28;20061;-47
2023/05/10 08:36:29;;;;;;;;;;;;;;;13.52;100.00;101128.53;5025207;28;19928;-48
2023/05/10 08:38:54;;;;;;;;;;;;;;;13.65;100.00;101127.06;5013076;28;20422;-47
2023/05/10 08:41:20;;;;;;;;;;;;;;;13.72;100.00;101131.53;5020038;28;19943;-47
2023/05/10 08:43:46;;;;;;;;;;;;;;;13.82;100.00;101137.72;5023588;28;19918;-49
2023/05/10 08:46:15;;;;;;;;;;;;;;;13.94;100.00;101133.66;5025871;28;20285;-47
2023/05/10 08:48:41;;;;;;;;;;;;;;;14.04;100.00;101139.00;5025836;28;20226;-47
2023/05/10 08:51:08;;;;;;;;;;;;;;;13.99;100.00;101135.47;5023943;28;19921;-48
2023/05/10 08:53:36;;;;;;;;;;;;;;;13.89;100.00;101143.06;5024601;28;19917;-47
2023/05/10 08:56:01;;;;;;;;;;;;;;;13.90;100.00;101142.22;5021162;28;20356;-48
2023/05/10 08:58:27;;;;;;;;;;;;;;;13.93;100.00;101137.09;5025675;28;19917;-47
2023/05/10 09:00:52;;;;;;;;;;;;;;;13.91;100.00;101145.66;5025774;28;19925;-47
2023/05/10 09:03:18;;;;;;;;;;;;;;;13.91;100.00;101146.53;5105715;27;19967;-48
2023/05/10 09:05:44;;;;;;;;;;;;;;;13.89;100.00;101145.66;5025498;28;20021;-48
2023/05/10 09:08:10;;;;;;;;;;;;;;;13.86;100.00;101144.72;5025395;28;19980;-46
2023/05/10 09:10:36;;;;;;;;;;;;;;;13.89;100.00;101156.00;5027964;28;19955;-47
2023/05/10 09:13:02;;;;;;;;;;;;;;;13.89;100.00;101156.00;5015774;27;19917;-46
2023/05/10 09:15:27;;;;;;;;;;;;;;;13.89;100.00;101153.41;5025893;28;20019;-47
2023/05/10 09:17:54;;;;;;;;;;;;;;;13.85;100.00;101155.91;5024713;28;19917;-46
2023/05/10 09:20:20;;;;;;;;;;;;;;;13.80;100.00;101160.97;5025474;28;19913;-46
2023/05/10 09:22:45;;;;;;;;;;;;;;;13.72;100.00;101157.38;5040592;28;19929;-46
2023/05/10 09:25:11;;;;;;;;;;;;;;;13.72;100.00;101161.66;5026001;28;19921;-49
2023/05/10 09:27:38;;;;;;;;;;;;;;;13.72;100.00;101162.53;5023523;28;19996;-47
2023/05/10 09:30:05;;;;;;;;;;;;;;;13.76;100.00;101159.16;5025413;28;20492;-49
2023/05/10 09:32:36;;;;;;;;;;;;;;;13.76;100.00;101169.50;5032544;28;20378;-48
2023/05/10 09:35:12;;;;;;;;;;;;;;;13.76;100.00;101163.44;5023443;28;20321;-51
2023/05/10 09:37:43;;;;;;;;;;;;;;;13.77;100.00;101171.25;5020819;28;19924;-46
2023/05/10 09:40:16;;;;;;;;;;;;;;;13.79;100.00;101169.56;5025977;28;19992;-48
2023/05/10 09:42:43;;;;;;;;;;;;;;;13.84;100.00;101167.94;5024066;28;20359;-47
2023/05/10 09:45:08;;;;;;;;;;;;;;;13.90;100.00;101170.66;5026131;28;19928;-47
2023/05/10 09:47:34;;;;;;;;;;;;;;;14.01;100.00;101180.31;5012288;28;19925;-47
2023/05/10 09:50:03;;;;;;;;;;;;;;;14.03;100.00;101176.94;5024790;28;19928;-49
2023/05/10 09:52:28;;;;;;;;;;;;;;;14.13;100.00;101175.38;5024267;28;19944;-46
2023/05/10 09:54:54;;;;;;;;;;;;;;;14.22;100.00;101172.97;5019802;28;20616;-48
2023/05/10 09:57:24;;;;;;;;;;;;;;;14.34;100.00;101180.94;5022268;28;19917;-48
2023/05/10 09:59:50;;;;;;;;;;;;;;;14.46;100.00;101180.28;5025377;28;19935;-48
2023/05/10 10:02:16;;;;;;;;;;;;;;;14.52;100.00;101177.84;5019879;28;19929;-50
2023/05/10 10:04:41;;;;;;;;;;;;;;;14.56;100.00;101176.16;5023983;28;19969;-47
2023/05/10 10:07:06;;;;;;;;;;;;;;;14.63;100.00;101176.31;5025498;28;19921;-48
2023/05/10 10:09:33;;;;;;;;;;;;;;;14.79;100.00;101174.81;5019902;28;19925;-49
2023/05/10 10:11:59;;;;;;;;;;;;;;;14.86;100.00;101174.06;5023306;28;19925;-48
2023/05/10 10:14:25;;;;;;;;;;;;;;;14.92;100.00;101166.38;5022854;28;19944;-49
2023/05/10 10:16:53;;;;;;;;;;;;;;;15.00;100.00;101179.47;5026378;28;20371;-49
2023/05/10 10:19:20;;;;;;;;;;;;;;;15.09;100.00;101174.41;5018951;28;19913;-48
2023/05/10 10:21:45;;;;;;;;;;;;;;;15.25;100.00;101171.19;5026740;28;20172;-49
2023/05/10 10:24:10;;;;;;;;;;;;;;;15.36;100.00;101181.72;5018108;28;19964;-51
2023/05/10 10:26:38;;;;;;;;;;;;;;;15.38;100.00;101177.41;5024254;28;19917;-49
2023/05/10 10:29:09;;;;;;;;;;;;;;;15.38;100.00;101179.13;5021653;28;19929;-51
2023/05/10 10:31:45;;;;;;;;;;;;;;;15.32;100.00;101184.22;5022720;28;19928;-48
2023/05/10 10:34:16;;;;;;;;;;;;;;;15.20;100.00;101197.88;5023956;28;20351;-49
2023/05/10 10:36:45;;;;;;;;;;;;;;;15.08;100.00;101184.75;5024614;28;19913;-47
2023/05/10 10:39:11;;;;;;;;;;;;;;;14.95;100.00;101194.06;5024539;28;20011;-47
2023/05/10 10:41:40;;;;;;;;;;;;;;;14.84;100.00;101190.41;5022252;28;20360;-48
2023/05/10 10:44:25;;;;;;;;;;;;;;;14.81;100.00;101192.97;5022326;28;20025;-49
2023/05/10 10:47:23;;;;;;;;;;;;;;;14.74;100.00;101192.88;5024879;28;19917;-47
2023/05/10 10:49:48;;;;;;;;;;;;;;;14.87;100.00;101182.72;5016974;28;19917;-51
2023/05/10 10:52:17;;;;;;;;;;;;;;;14.92;100.00;101194.88;5022937;28;20398;-49
2023/05/10 10:54:52;;;;;;;;;;;;;;;14.86;100.00;101191.31;5015620;27;19921;-52
2023/05/10 10:57:18;;;;;;;;;;;;;;;14.78;100.00;101183.44;5023693;28;19960;-48
2023/05/10 10:59:46;;;;;;;;;;;;;;;14.77;100.00;101186.88;5023351;28;19920;-51
2023/05/10 11:02:49;;;;;;;;;;;;;;;14.90;100.00;101193.09;5018622;28;19921;-47
2023/05/10 11:05:37;;;;;;;;;;;;;;;15.09;100.00;101189.06;5042836;28;19924;-48
2023/05/10 11:08:13;;;;;;;;;;;;;;;15.16;100.00;101191.78;5021800;28;20016;-48
2023/05/10 11:10:38;;;;;;;;;;;;;;;15.25;100.00;101194.50;5023338;28;19917;-48
2023/05/10 11:13:05;;;;;;;;;;;;;;;15.47;100.00;101185.31;5022293;28;19943;-50
2023/05/10 11:15:32;;;;;;;;;;;;;;;15.60;100.00;101178.56;5020891;28;20454;-48
2023/05/10 11:17:57;;;;;;;;;;;;;;;15.78;100.00;101189.19;5024191;28;19920;-49
2023/05/10 11:20:24;;;;;;;;;;;;;;;16.00;100.00;101192.88;5022272;28;19917;-51
2023/05/10 11:22:53;;;;;;;;;;;;;;;16.18;100.00;101197.41;5022108;28;19948;-49
2023/05/10 11:25:18;;;;;;;;;;;;;;;16.22;100.00;101190.53;5025965;28;20070;-49
2023/05/10 11:27:44;;;;;;;;;;;;;;;16.25;100.00;101195.75;5022295;27;20447;-49
2023/05/10 11:30:11;;;;;;;;;;;;;;;16.26;100.00;101193.19;5036593;27;19920;-48
2023/05/10 11:32:37;;;;;;;;;;;;;;;16.27;100.00;101196.66;5022735;28;19920;-51
2023/05/10 11:35:10;;;;;;;;;;;;;;;16.30;100.00;101196.66;5023706;28;20003;-49
2023/05/10 11:37:35;;;;;;;;;;;;;;;16.25;100.00;101195.75;5024151;28;19936;-47
2023/05/10 11:40:00;;;;;;;;;;;;;;;16.16;100.00;101193.94;5024597;28;19917;-51
2023/05/10 11:42:27;;;;;;;;;;;;;;;16.14;100.00;101197.34;5021954;28;19960;-51
2023/05/10 11:44:53;;;;;;;;;;;;;;;16.12;100.00;101189.56;5022622;28;19967;-52
2023/05/10 11:47:18;;;;;;;;;;;;;;;16.14;100.00;101193.06;5022511;28;19921;-51
2023/05/10 11:49:44;;;;;;;;;;;;;;;16.20;99.03;101194.81;5032660;28;20047;-52
2023/05/10 11:52:11;;;;;;;;;;;;;;;16.28;100.00;101195.78;5020536;28;19917;-51
2023/05/10 11:54:36;;;;;;;;;;;;;;;16.31;100.00;101186.28;5020782;28;19929;-51
2023/05/10 11:57:02;;;;;;;;;;;;;;;16.38;100.00;101187.25;5023318;28;19926;-52
2023/05/10 11:59:27;;;;;;;;;;;;;;;16.42;100.00;101189.00;5024264;28;19917;-50
2023/05/10 12:01:53;;;;;;;;;;;;;;;16.36;99.82;101192.41;5020429;28;19925;-51
2023/05/10 12:04:18;;;;;;;;;;;;;;;16.11;100.00;101192.13;5018406;28;19922;-48
2023/05/10 12:06:44;;;;;;;;;;;;;;;15.94;100.00;101199.72;5023189;28;19917;-52
2023/05/10 12:09:10;;;;;;;;;;;;;;;15.87;100.00;101203.97;5022782;28;19933;-52
2023/05/10 12:11:40;;;;;;;;;;;;;;;15.80;100.00;101203.03;5031093;28;19921;-53
2023/05/10 12:14:05;;;;;;;;;;;;;;;15.75;100.00;101212.47;5017888;28;19917;-51
2023/05/10 12:16:31;;;;;;;;;;;;;;;15.71;100.00;101213.31;5020531;28;19924;-51
2023/05/10 12:18:57;;;;;;;;;;;;;;;15.63;100.00;101216.63;5025330;28;19924;-51
2023/05/10 12:21:22;;;;;;;;;;;;;;;15.57;100.00;101215.66;5026792;28;20381;-52
2023/05/10 12:23:49;;;;;;;;;;;;;;;15.52;100.00;101214.72;5027271;28;19944;-52
2023/05/10 12:26:15;;;;;;;;;;;;;;;15.46;100.00;101213.78;5023348;28;19927;-51